sensor_id;sensor_type;location;lat;lon;timestamp;temperature;humidity
60727;DHT22;46577;49.004;12.120;2023-02-11T00:01:26;-1.90;99.90
60727;DHT22;46577;49.004;12.120;2023-02-11T00:03:52;-2.00;99.90
60727;DHT22;46577;49.004;12.120;2023-02-11T00:06:18;-1.90;99.90
60727;DHT22;46577;49.004;12.120;2023-02-11T00:08:44;-2.00;99.90
60727;DHT22;46577;49.004;12.120;2023-02-11T00:11:14;-2.00;99.90
60727;DHT22;46577;49.004;12.120;2023-02-11T00:13:41;-2.00;99.90
60727;DHT22;46577;49.004;12.120;2023-02-11T00:16:09;-2.00;99.90
60727;DHT22;46577;49.004;12.120;2023-02-11T00:18:34;-2.00;99.90
60727;DHT22;46577;49.004;12.120;2023-02-11T00:21:08;-2.10;99.90
60727;DHT22;46577;49.004;12.120;2023-02-11T00:23:35;-2.10;99.90
60727;DHT22;46577;49.004;12.120;2023-02-11T00:26:01;-2.20;99.90
60727;DHT22;46577;49.004;12.120;2023-02-11T00:28:26;-2.20;99.90
60727;DHT22;46577;49.004;12.120;2023-02-11T00:30:58;-2.20;99.90
60727;DHT22;46577;49.004;12.120;2023-02-11T00:33:25;-2.20;99.90
60727;DHT22;46577;49.004;12.120;2023-02-11T00:35:51;-2.30;99.90
60727;DHT22;46577;49.004;12.120;2023-02-11T00:38:17;-2.30;99.90
60727;DHT22;46577;49.004;12.120;2023-02-11T00:40:42;-2.30;99.90
60727;DHT22;46577;49.004;12.120;2023-02-11T00:43:08;-2.40;99.90
60727;DHT22;46577;49.004;12.120;2023-02-11T00:45:33;-2.40;99.90
60727;DHT22;46577;49.004;12.120;2023-02-11T00:47:59;-2.40;99.90
60727;DHT22;46577;49.004;12.120;2023-02-11T00:50:24;-2.40;99.90
60727;DHT22;46577;49.004;12.120;2023-02-11T00:52:50;-2.40;99.90
60727;DHT22;46577;49.004;12.120;2023-02-11T00:55:16;-2.50;99.90
60727;DHT22;46577;49.004;12.120;2023-02-11T00:57:42;-2.50;99.90
60727;DHT22;46577;49.004;12.120;2023-02-11T01:00:10;-2.60;99.90
60727;DHT22;46577;49.004;12.120;2023-02-11T01:02:36;-2.70;99.90
60727;DHT22;46577;49.004;12.120;2023-02-11T01:05:03;-2.60;99.90
60727;DHT22;46577;49.004;12.120;2023-02-11T01:07:28;-2.60;99.90
60727;DHT22;46577;49.004;12.120;2023-02-11T01:09:54;-2.50;99.90
60727;DHT22;46577;49.004;12.120;2023-02-11T01:12:20;-2.60;99.90
60727;DHT22;46577;49.004;12.120;2023-02-11T01:14:45;-2.60;99.90
60727;DHT22;46577;49.004;12.120;2023-02-11T01:17:11;-2.60;99.90
60727;DHT22;46577;49.004;12.120;2023-02-11T01:19:37;-2.60;99.90
60727;DHT22;46577;49.004;12.120;2023-02-11T01:22:03;-2.60;99.90
60727;DHT22;46577;49.004;12.120;2023-02-11T01:24:29;-2.60;99.90
60727;DHT22;46577;49.004;12.120;2023-02-11T01:26:55;-4.70;99.90
60727;DHT22;46577;49.004;12.120;2023-02-11T01:29:20;-2.80;99.90
60727;DHT22;46577;49.004;12.120;2023-02-11T01:31:46;-2.80;99.90
60727;DHT22;46577;49.004;12.120;2023-02-11T01:34:12;-2.80;99.90
60727;DHT22;46577;49.004;12.120;2023-02-11T01:36:37;-2.80;99.90
60727;DHT22;46577;49.004;12.120;2023-02-11T01:39:03;-2.80;99.90
60727;DHT22;46577;49.004;12.120;2023-02-11T01:41:29;-2.80;99.90
60727;DHT22;46577;49.004;12.120;2023-02-11T01:43:54;-2.80;99.90
60727;DHT22;46577;49.004;12.120;2023-02-11T01:46:36;-2.80;99.90
60727;DHT22;46577;49.004;12.120;2023-02-11T01:49:08;-2.90;99.90
60727;DHT22;46577;49.004;12.120;2023-02-11T01:51:43;-2.90;99.90
60727;DHT22;46577;49.004;12.120;2023-02-11T01:54:15;-3.00;99.90
60727;DHT22;46577;49.004;12.120;2023-02-11T01:57:01;-3.00;99.90
60727;DHT22;46577;49.004;12.120;2023-02-11T02:00:12;-2.90;99.90
60727;DHT22;46577;49.004;12.120;2023-02-11T02:03:05;-3.00;99.90
60727;DHT22;46577;49.004;12.120;2023-02-11T02:05:58;-3.00;99.90
60727;DHT22;46577;49.004;12.120;2023-02-11T02:08:41;-3.00;99.90
60727;DHT22;46577;49.004;12.120;2023-02-11T02:11:08;-2.90;99.90
60727;DHT22;46577;49.004;12.120;2023-02-11T02:13:35;-2.90;99.90
60727;DHT22;46577;49.004;12.120;2023-02-11T02:16:07;-3.00;99.90
60727;DHT22;46577;49.004;12.120;2023-02-11T02:39:00;-3.00;99.90
60727;DHT22;46577;49.004;12.120;2023-02-11T02:41:32;-3.00;99.90
60727;DHT22;46577;49.004;12.120;2023-02-11T02:43:58;-3.00;99.90
60727;DHT22;46577;49.004;12.120;2023-02-11T02:46:27;-3.00;99.90
60727;DHT22;46577;49.004;12.120;2023-02-11T02:48:54;-3.00;99.90
60727;DHT22;46577;49.004;12.120;2023-02-11T02:51:37;-2.90;99.90
60727;DHT22;46577;49.004;12.120;2023-02-11T03:04:59;-2.80;99.90
60727;DHT22;46577;49.004;12.120;2023-02-11T03:10:16;-2.80;99.90
60727;DHT22;46577;49.004;12.120;2023-02-11T03:12:44;-2.80;99.90
60727;DHT22;46577;49.004;12.120;2023-02-11T03:15:12;-2.70;99.90
60727;DHT22;46577;49.004;12.120;2023-02-11T03:17:40;-2.70;99.90
60727;DHT22;46577;49.004;12.120;2023-02-11T03:20:09;-2.70;99.90
60727;DHT22;46577;49.004;12.120;2023-02-11T03:23:02;-2.70;99.90
60727;DHT22;46577;49.004;12.120;2023-02-11T03:25:29;-2.60;99.90
60727;DHT22;46577;49.004;12.120;2023-02-11T03:33:30;-2.70;99.90
60727;DHT22;46577;49.004;12.120;2023-02-11T03:36:03;-2.70;99.90
60727;DHT22;46577;49.004;12.120;2023-02-11T03:38:32;-2.80;99.90
60727;DHT22;46577;49.004;12.120;2023-02-11T03:41:01;-2.80;99.90
60727;DHT22;46577;49.004;12.120;2023-02-11T03:43:55;-2.80;99.90
60727;DHT22;46577;49.004;12.120;2023-02-11T03:46:23;-2.80;99.90
60727;DHT22;46577;49.004;12.120;2023-02-11T03:48:55;-2.80;99.90
60727;DHT22;46577;49.004;12.120;2023-02-11T03:51:24;-2.70;99.90
60727;DHT22;46577;49.004;12.120;2023-02-11T03:53:54;-2.60;99.90
60727;DHT22;46577;49.004;12.120;2023-02-11T03:56:25;-2.60;99.90
60727;DHT22;46577;49.004;12.120;2023-02-11T03:58:51;-2.60;99.90
60727;DHT22;46577;49.004;12.120;2023-02-11T04:01:17;-2.60;99.90
60727;DHT22;46577;49.004;12.120;2023-02-11T04:03:43;-2.60;99.90
60727;DHT22;46577;49.004;12.120;2023-02-11T04:06:08;-2.60;99.90
60727;DHT22;46577;49.004;12.120;2023-02-11T04:08:34;-2.60;99.90
60727;DHT22;46577;49.004;12.120;2023-02-11T04:11:00;-2.50;99.90
60727;DHT22;46577;49.004;12.120;2023-02-11T04:13:26;-2.50;99.90
60727;DHT22;46577;49.004;12.120;2023-02-11T04:15:51;-2.50;99.90
60727;DHT22;46577;49.004;12.120;2023-02-11T04:18:17;-2.40;99.90
60727;DHT22;46577;49.004;12.120;2023-02-11T04:20:43;-2.30;99.90
60727;DHT22;46577;49.004;12.120;2023-02-11T04:23:08;-2.30;99.90
60727;DHT22;46577;49.004;12.120;2023-02-11T04:25:34;-2.40;99.90
60727;DHT22;46577;49.004;12.120;2023-02-11T04:28:00;-2.40;99.90
60727;DHT22;46577;49.004;12.120;2023-02-11T04:30:26;-2.40;99.90
60727;DHT22;46577;49.004;12.120;2023-02-11T04:32:52;-2.40;99.90
60727;DHT22;46577;49.004;12.120;2023-02-11T04:35:19;-2.50;99.90
60727;DHT22;46577;49.004;12.120;2023-02-11T04:37:44;-2.50;99.90
60727;DHT22;46577;49.004;12.120;2023-02-11T04:40:10;-2.50;99.90
60727;DHT22;46577;49.004;12.120;2023-02-11T04:42:36;-2.40;99.90
60727;DHT22;46577;49.004;12.120;2023-02-11T04:45:02;-2.40;99.90
60727;DHT22;46577;49.004;12.120;2023-02-11T04:47:28;-2.30;99.90
60727;DHT22;46577;49.004;12.120;2023-02-11T04:49:54;-2.30;99.90
60727;DHT22;46577;49.004;12.120;2023-02-11T04:52:19;-2.30;99.90
60727;DHT22;46577;49.004;12.120;2023-02-11T04:54:45;-2.30;99.90
60727;DHT22;46577;49.004;12.120;2023-02-11T04:57:11;-2.30;99.90
60727;DHT22;46577;49.004;12.120;2023-02-11T04:59:36;-2.20;99.90
60727;DHT22;46577;49.004;12.120;2023-02-11T05:02:02;-2.20;99.90
60727;DHT22;46577;49.004;12.120;2023-02-11T05:04:28;-2.30;99.90
60727;DHT22;46577;49.004;12.120;2023-02-11T05:06:54;-2.40;99.90
60727;DHT22;46577;49.004;12.120;2023-02-11T05:09:19;-2.40;99.90
60727;DHT22;46577;49.004;12.120;2023-02-11T05:11:45;-2.40;99.90
60727;DHT22;46577;49.004;12.120;2023-02-11T05:14:10;-2.40;99.90
60727;DHT22;46577;49.004;12.120;2023-02-11T05:16:36;-2.30;99.90
60727;DHT22;46577;49.004;12.120;2023-02-11T05:19:02;-2.20;99.90
60727;DHT22;46577;49.004;12.120;2023-02-11T05:21:27;-2.20;99.90
60727;DHT22;46577;49.004;12.120;2023-02-11T05:23:53;-2.20;99.90
60727;DHT22;46577;49.004;12.120;2023-02-11T05:26:19;-2.20;99.90
60727;DHT22;46577;49.004;12.120;2023-02-11T05:28:44;-2.20;99.90
60727;DHT22;46577;49.004;12.120;2023-02-11T05:31:11;-2.30;99.90
60727;DHT22;46577;49.004;12.120;2023-02-11T05:33:39;-2.30;99.90
60727;DHT22;46577;49.004;12.120;2023-02-11T05:36:08;-2.20;99.90
60727;DHT22;46577;49.004;12.120;2023-02-11T05:38:34;-2.20;99.90
60727;DHT22;46577;49.004;12.120;2023-02-11T05:41:00;-2.10;99.90
60727;DHT22;46577;49.004;12.120;2023-02-11T05:43:26;-2.00;99.90
60727;DHT22;46577;49.004;12.120;2023-02-11T05:45:52;-2.00;99.90
60727;DHT22;46577;49.004;12.120;2023-02-11T05:48:17;-2.10;99.90
60727;DHT22;46577;49.004;12.120;2023-02-11T05:50:43;-2.20;99.90
60727;DHT22;46577;49.004;12.120;2023-02-11T05:53:09;-2.20;99.90
60727;DHT22;46577;49.004;12.120;2023-02-11T05:55:35;-2.20;99.90
60727;DHT22;46577;49.004;12.120;2023-02-11T05:58:00;-2.10;99.90
60727;DHT22;46577;49.004;12.120;2023-02-11T06:00:26;-2.10;99.90
60727;DHT22;46577;49.004;12.120;2023-02-11T06:02:52;-2.00;99.90
60727;DHT22;46577;49.004;12.120;2023-02-11T06:05:18;-2.00;99.90
60727;DHT22;46577;49.004;12.120;2023-02-11T06:07:43;-2.00;99.90
60727;DHT22;46577;49.004;12.120;2023-02-11T06:10:09;-1.90;99.90
60727;DHT22;46577;49.004;12.120;2023-02-11T06:12:36;-1.90;99.90
60727;DHT22;46577;49.004;12.120;2023-02-11T06:15:01;-1.90;99.90
60727;DHT22;46577;49.004;12.120;2023-02-11T06:17:27;-1.90;99.90
60727;DHT22;46577;49.004;12.120;2023-02-11T06:19:57;-1.80;99.90
60727;DHT22;46577;49.004;12.120;2023-02-11T06:22:23;-1.80;99.90
60727;DHT22;46577;49.004;12.120;2023-02-11T06:24:48;-1.80;99.90
60727;DHT22;46577;49.004;12.120;2023-02-11T06:27:14;-1.80;99.90
60727;DHT22;46577;49.004;12.120;2023-02-11T06:29:39;-1.80;99.90
60727;DHT22;46577;49.004;12.120;2023-02-11T06:32:05;-1.80;99.90
60727;DHT22;46577;49.004;12.120;2023-02-11T06:34:30;-1.70;99.90
60727;DHT22;46577;49.004;12.120;2023-02-11T06:36:56;-1.80;99.90
60727;DHT22;46577;49.004;12.120;2023-02-11T06:39:21;-1.80;99.90
60727;DHT22;46577;49.004;12.120;2023-02-11T06:41:47;-1.70;99.90
60727;DHT22;46577;49.004;12.120;2023-02-11T06:44:13;-1.70;99.90
60727;DHT22;46577;49.004;12.120;2023-02-11T06:46:38;-1.70;99.90
60727;DHT22;46577;49.004;12.120;2023-02-11T06:49:04;-1.60;99.90
60727;DHT22;46577;49.004;12.120;2023-02-11T06:51:29;-1.60;99.90
60727;DHT22;46577;49.004;12.120;2023-02-11T06:53:55;-1.50;99.90
60727;DHT22;46577;49.004;12.120;2023-02-11T06:56:22;-1.60;99.90
60727;DHT22;46577;49.004;12.120;2023-02-11T06:58:51;-1.60;99.90
60727;DHT22;46577;49.004;12.120;2023-02-11T07:01:18;-1.50;99.90
60727;DHT22;46577;49.004;12.120;2023-02-11T07:03:44;-1.40;99.90
60727;DHT22;46577;49.004;12.120;2023-02-11T07:06:13;-1.30;99.90
60727;DHT22;46577;49.004;12.120;2023-02-11T07:08:40;-1.40;99.90
60727;DHT22;46577;49.004;12.120;2023-02-11T07:11:27;-1.40;99.90
60727;DHT22;46577;49.004;12.120;2023-02-11T07:13:55;-1.40;99.90
60727;DHT22;46577;49.004;12.120;2023-02-11T07:16:21;-1.40;99.90
60727;DHT22;46577;49.004;12.120;2023-02-11T07:18:48;-1.30;99.90
60727;DHT22;46577;49.004;12.120;2023-02-11T07:21:16;-1.30;99.90
60727;DHT22;46577;49.004;12.120;2023-02-11T07:23:42;-1.40;99.90
60727;DHT22;46577;49.004;12.120;2023-02-11T07:26:12;-1.30;99.90
60727;DHT22;46577;49.004;12.120;2023-02-11T07:28:38;-1.10;99.90
60727;DHT22;46577;49.004;12.120;2023-02-11T07:31:06;-1.00;99.90
60727;DHT22;46577;49.004;12.120;2023-02-11T07:33:33;-1.00;99.90
60727;DHT22;46577;49.004;12.120;2023-02-11T07:36:00;-0.90;99.90
60727;DHT22;46577;49.004;12.120;2023-02-11T07:38:26;-0.70;99.90
60727;DHT22;46577;49.004;12.120;2023-02-11T07:40:51;-0.70;99.90
60727;DHT22;46577;49.004;12.120;2023-02-11T07:43:17;-0.60;99.90
60727;DHT22;46577;49.004;12.120;2023-02-11T07:45:42;-0.50;99.90
60727;DHT22;46577;49.004;12.120;2023-02-11T07:48:08;-0.30;99.90
60727;DHT22;46577;49.004;12.120;2023-02-11T07:50:34;-0.20;99.90
60727;DHT22;46577;49.004;12.120;2023-02-11T07:52:59;-0.10;99.90
60727;DHT22;46577;49.004;12.120;2023-02-11T07:55:25;0.00;99.90
60727;DHT22;46577;49.004;12.120;2023-02-11T07:57:50;0.10;99.90
60727;DHT22;46577;49.004;12.120;2023-02-11T08:00:16;0.00;99.90
60727;DHT22;46577;49.004;12.120;2023-02-11T08:02:42;0.10;99.90
60727;DHT22;46577;49.004;12.120;2023-02-11T08:05:07;0.20;99.90
60727;DHT22;46577;49.004;12.120;2023-02-11T08:07:33;0.10;99.90
60727;DHT22;46577;49.004;12.120;2023-02-11T08:09:58;0.10;99.90
60727;DHT22;46577;49.004;12.120;2023-02-11T08:12:24;0.20;99.90
60727;DHT22;46577;49.004;12.120;2023-02-11T08:14:50;0.10;99.90
60727;DHT22;46577;49.004;12.120;2023-02-11T08:17:15;0.10;99.90
60727;DHT22;46577;49.004;12.120;2023-02-11T08:19:41;0.20;99.90
60727;DHT22;46577;49.004;12.120;2023-02-11T08:22:07;0.30;99.90
60727;DHT22;46577;49.004;12.120;2023-02-11T08:24:33;0.40;99.90
60727;DHT22;46577;49.004;12.120;2023-02-11T08:26:58;0.70;99.90
60727;DHT22;46577;49.004;12.120;2023-02-11T08:29:24;0.80;99.90
60727;DHT22;46577;49.004;12.120;2023-02-11T08:31:49;0.80;99.90
60727;DHT22;46577;49.004;12.120;2023-02-11T08:34:15;1.30;99.90
60727;DHT22;46577;49.004;12.120;2023-02-11T08:36:44;1.90;99.90
60727;DHT22;46577;49.004;12.120;2023-02-11T08:39:20;2.10;99.90
60727;DHT22;46577;49.004;12.120;2023-02-11T08:41:51;2.30;99.90
60727;DHT22;46577;49.004;12.120;2023-02-11T08:44:18;2.40;99.90
60727;DHT22;46577;49.004;12.120;2023-02-11T08:46:45;2.40;99.90
60727;DHT22;46577;49.004;12.120;2023-02-11T08:49:10;2.40;99.90
60727;DHT22;46577;49.004;12.120;2023-02-11T08:51:36;2.90;99.90
60727;DHT22;46577;49.004;12.120;2023-02-11T08:54:01;3.80;99.90
60727;DHT22;46577;49.004;12.120;2023-02-11T08:56:28;5.10;99.90
60727;DHT22;46577;49.004;12.120;2023-02-11T08:58:55;7.20;95.00
60727;DHT22;46577;49.004;12.120;2023-02-11T09:01:23;8.70;87.50
60727;DHT22;46577;49.004;12.120;2023-02-11T09:03:49;9.30;80.10
60727;DHT22;46577;49.004;12.120;2023-02-11T09:06:15;9.80;76.70
60727;DHT22;46577;49.004;12.120;2023-02-11T09:08:44;9.60;72.60
60727;DHT22;46577;49.004;12.120;2023-02-11T09:11:11;9.20;74.30
60727;DHT22;46577;49.004;12.120;2023-02-11T09:13:36;8.90;74.00
60727;DHT22;46577;49.004;12.120;2023-02-11T09:16:03;7.90;75.30
60727;DHT22;46577;49.004;12.120;2023-02-11T09:18:30;7.60;77.90
60727;DHT22;46577;49.004;12.120;2023-02-11T09:21:07;7.00;79.30
60727;DHT22;46577;49.004;12.120;2023-02-11T09:23:34;6.60;82.40
60727;DHT22;46577;49.004;12.120;2023-02-11T09:26:08;6.10;85.20
60727;DHT22;46577;49.004;12.120;2023-02-11T09:28:34;5.50;88.90
60727;DHT22;46577;49.004;12.120;2023-02-11T09:31:08;5.20;90.80
60727;DHT22;46577;49.004;12.120;2023-02-11T09:33:34;4.60;92.10
60727;DHT22;46577;49.004;12.120;2023-02-11T09:36:04;5.40;94.00
60727;DHT22;46577;49.004;12.120;2023-02-11T09:38:31;4.40;94.70
60727;DHT22;46577;49.004;12.120;2023-02-11T09:40:57;4.30;95.40
60727;DHT22;46577;49.004;12.120;2023-02-11T09:43:32;3.90;97.00
60727;DHT22;46577;49.004;12.120;2023-02-11T09:46:00;3.40;98.00
60727;DHT22;46577;49.004;12.120;2023-02-11T09:48:28;4.00;99.50
60727;DHT22;46577;49.004;12.120;2023-02-11T09:50:57;2.90;99.90
60727;DHT22;46577;49.004;12.120;2023-02-11T09:53:26;2.40;99.90
60727;DHT22;46577;49.004;12.120;2023-02-11T09:55:55;2.60;99.90
60727;DHT22;46577;49.004;12.120;2023-02-11T09:58:34;2.70;99.90
60727;DHT22;46577;49.004;12.120;2023-02-11T10:01:15;2.60;99.90
60727;DHT22;46577;49.004;12.120;2023-02-11T10:06:37;2.70;99.90
60727;DHT22;46577;49.004;12.120;2023-02-11T10:15:07;2.40;99.90
60727;DHT22;46577;49.004;12.120;2023-02-11T10:23:11;2.60;99.90
60727;DHT22;46577;49.004;12.120;2023-02-11T10:25:47;3.10;99.90
60727;DHT22;46577;49.004;12.120;2023-02-11T10:28:34;3.00;99.90
60727;DHT22;46577;49.004;12.120;2023-02-11T10:33:40;3.50;99.90
60727;DHT22;46577;49.004;12.120;2023-02-11T10:36:10;3.50;99.90
60727;DHT22;46577;49.004;12.120;2023-02-11T10:38:36;3.20;99.90
60727;DHT22;46577;49.004;12.120;2023-02-11T10:41:02;3.20;99.90
60727;DHT22;46577;49.004;12.120;2023-02-11T10:43:29;3.20;99.90
60727;DHT22;46577;49.004;12.120;2023-02-11T10:45:56;3.00;99.90
60727;DHT22;46577;49.004;12.120;2023-02-11T10:48:50;2.80;99.90
60727;DHT22;46577;49.004;12.120;2023-02-11T10:56:38;3.60;99.90
60727;DHT22;46577;49.004;12.120;2023-02-11T11:01:52;4.00;99.90
60727;DHT22;46577;49.004;12.120;2023-02-11T11:04:37;4.20;99.90
60727;DHT22;46577;49.004;12.120;2023-02-11T11:07:19;4.10;99.90
60727;DHT22;46577;49.004;12.120;2023-02-11T11:10:07;3.90;99.90
60727;DHT22;46577;49.004;12.120;2023-02-11T11:12:48;3.80;99.90
60727;DHT22;46577;49.004;12.120;2023-02-11T11:15:25;3.70;99.90
60727;DHT22;46577;49.004;12.120;2023-02-11T11:18:11;3.50;99.90
60727;DHT22;46577;49.004;12.120;2023-02-11T11:20:37;3.90;99.90
60727;DHT22;46577;49.004;12.120;2023-02-11T11:23:17;3.60;99.90
60727;DHT22;46577;49.004;12.120;2023-02-11T11:26:07;3.60;99.90
60727;DHT22;46577;49.004;12.120;2023-02-11T11:31:16;3.80;99.90
60727;DHT22;46577;49.004;12.120;2023-02-11T11:33:45;3.70;99.90
60727;DHT22;46577;49.004;12.120;2023-02-11T11:36:16;3.60;99.90
60727;DHT22;46577;49.004;12.120;2023-02-11T11:38:49;3.60;99.90
60727;DHT22;46577;49.004;12.120;2023-02-11T11:41:27;3.80;99.90
60727;DHT22;46577;49.004;12.120;2023-02-11T11:43:57;4.00;99.90
60727;DHT22;46577;49.004;12.120;2023-02-11T11:46:26;4.00;99.90
60727;DHT22;46577;49.004;12.120;2023-02-11T11:48:58;4.00;99.90
60727;DHT22;46577;49.004;12.120;2023-02-11T11:51:29;4.00;99.90
60727;DHT22;46577;49.004;12.120;2023-02-11T11:54:05;4.10;99.90
60727;DHT22;46577;49.004;12.120;2023-02-11T11:56:34;4.20;99.90
60727;DHT22;46577;49.004;12.120;2023-02-11T11:59:09;3.90;99.90
60727;DHT22;46577;49.004;12.120;2023-02-11T12:04:43;4.20;99.90
60727;DHT22;46577;49.004;12.120;2023-02-11T12:15:35;4.80;99.90
60727;DHT22;46577;49.004;12.120;2023-02-11T12:28:35;4.50;99.90
60727;DHT22;46577;49.004;12.120;2023-02-11T12:36:39;4.70;99.90
60727;DHT22;46577;49.004;12.120;2023-02-11T12:50:37;7.00;96.10
60727;DHT22;46577;49.004;12.120;2023-02-11T12:54:01;7.10;95.50
60727;DHT22;46577;49.004;12.120;2023-02-11T12:56:35;6.90;95.70
60727;DHT22;46577;49.004;12.120;2023-02-11T12:59:14;6.30;95.90
60727;DHT22;46577;49.004;12.120;2023-02-11T13:01:42;5.80;97.10
60727;DHT22;46577;49.004;12.120;2023-02-11T13:04:16;5.40;97.90
60727;DHT22;46577;49.004;12.120;2023-02-11T13:06:50;5.30;98.40
60727;DHT22;46577;49.004;12.120;2023-02-11T13:09:20;5.10;99.00
60727;DHT22;46577;49.004;12.120;2023-02-11T13:11:50;5.10;99.10
60727;DHT22;46577;49.004;12.120;2023-02-11T13:14:33;5.20;99.50
60727;DHT22;46577;49.004;12.120;2023-02-11T13:17:03;5.40;99.30
60727;DHT22;46577;49.004;12.120;2023-02-11T13:19:44;5.00;99.30
60727;DHT22;46577;49.004;12.120;2023-02-11T13:22:29;4.80;99.50
60727;DHT22;46577;49.004;12.120;2023-02-11T13:30:38;4.40;99.90
60727;DHT22;46577;49.004;12.120;2023-02-11T13:33:35;4.40;99.90
60727;DHT22;46577;49.004;12.120;2023-02-11T13:38:28;4.40;99.90
60727;DHT22;46577;49.004;12.120;2023-02-11T13:43:40;4.10;99.90
60727;DHT22;46577;49.004;12.120;2023-02-11T13:46:11;4.00;99.90
60727;DHT22;46577;49.004;12.120;2023-02-11T13:48:40;4.00;99.90
60727;DHT22;46577;49.004;12.120;2023-02-11T13:51:13;4.20;99.90
60727;DHT22;46577;49.004;12.120;2023-02-11T13:53:53;4.10;99.90
60727;DHT22;46577;49.004;12.120;2023-02-11T13:59:00;4.30;99.90
60727;DHT22;46577;49.004;12.120;2023-02-11T14:04:36;4.10;99.90
60727;DHT22;46577;49.004;12.120;2023-02-11T14:10:50;4.30;99.90
60727;DHT22;46577;49.004;12.120;2023-02-11T14:13:30;4.60;99.90
60727;DHT22;46577;49.004;12.120;2023-02-11T14:16:13;4.50;99.90
60727;DHT22;46577;49.004;12.120;2023-02-11T14:23:50;5.30;99.90
60727;DHT22;46577;49.004;12.120;2023-02-11T14:26:34;5.20;99.80
60727;DHT22;46577;49.004;12.120;2023-02-11T14:32:08;5.00;99.90
60727;DHT22;46577;49.004;12.120;2023-02-11T14:40:12;5.30;99.90
60727;DHT22;46577;49.004;12.120;2023-02-11T14:42:41;5.30;99.80
60727;DHT22;46577;49.004;12.120;2023-02-11T14:45:17;5.20;99.90
60727;DHT22;46577;49.004;12.120;2023-02-11T14:47:50;5.10;99.90
60727;DHT22;46577;49.004;12.120;2023-02-11T14:50:53;5.00;99.90
60727;DHT22;46577;49.004;12.120;2023-02-11T14:53:24;4.90;99.90
60727;DHT22;46577;49.004;12.120;2023-02-11T14:55:52;5.20;99.90
60727;DHT22;46577;49.004;12.120;2023-02-11T15:00:57;4.90;99.90
60727;DHT22;46577;49.004;12.120;2023-02-11T15:03:38;5.00;99.90
60727;DHT22;46577;49.004;12.120;2023-02-11T15:06:15;5.00;99.90
60727;DHT22;46577;49.004;12.120;2023-02-11T15:08:49;4.80;99.90
60727;DHT22;46577;49.004;12.120;2023-02-11T15:11:18;4.90;99.90
60727;DHT22;46577;49.004;12.120;2023-02-11T15:13:44;4.90;99.90
60727;DHT22;46577;49.004;12.120;2023-02-11T15:16:17;4.80;99.90
60727;DHT22;46577;49.004;12.120;2023-02-11T15:18:48;4.90;99.90
60727;DHT22;46577;49.004;12.120;2023-02-11T15:21:27;5.00;99.90
60727;DHT22;46577;49.004;12.120;2023-02-11T15:24:00;5.10;99.90
60727;DHT22;46577;49.004;12.120;2023-02-11T15:26:27;5.10;99.90
60727;DHT22;46577;49.004;12.120;2023-02-11T15:28:53;5.10;99.90
60727;DHT22;46577;49.004;12.120;2023-02-11T15:31:23;5.10;99.90
60727;DHT22;46577;49.004;12.120;2023-02-11T15:33:50;5.10;99.90
60727;DHT22;46577;49.004;12.120;2023-02-11T15:36:17;5.00;99.90
60727;DHT22;46577;49.004;12.120;2023-02-11T15:38:43;5.00;99.90
60727;DHT22;46577;49.004;12.120;2023-02-11T15:41:33;5.00;99.90
60727;DHT22;46577;49.004;12.120;2023-02-11T15:43:59;5.00;99.90
60727;DHT22;46577;49.004;12.120;2023-02-11T15:46:35;4.90;99.90
60727;DHT22;46577;49.004;12.120;2023-02-11T15:49:02;4.80;99.90
60727;DHT22;46577;49.004;12.120;2023-02-11T15:51:31;4.70;99.90
60727;DHT22;46577;49.004;12.120;2023-02-11T15:54:18;4.60;99.90
60727;DHT22;46577;49.004;12.120;2023-02-11T15:56:48;4.50;99.90
60727;DHT22;46577;49.004;12.120;2023-02-11T15:59:27;4.80;99.90
60727;DHT22;46577;49.004;12.120;2023-02-11T16:01:57;4.40;99.90
60727;DHT22;46577;49.004;12.120;2023-02-11T16:04:26;4.40;99.90
60727;DHT22;46577;49.004;12.120;2023-02-11T16:06:53;4.20;99.90
60727;DHT22;46577;49.004;12.120;2023-02-11T16:09:32;4.00;99.90
60727;DHT22;46577;49.004;12.120;2023-02-11T16:12:02;3.90;99.90
60727;DHT22;46577;49.004;12.120;2023-02-11T16:17:20;4.00;99.90
60727;DHT22;46577;49.004;12.120;2023-02-11T16:19:49;3.70;99.90
60727;DHT22;46577;49.004;12.120;2023-02-11T16:22:18;4.00;99.90
60727;DHT22;46577;49.004;12.120;2023-02-11T16:24:46;3.90;99.90
60727;DHT22;46577;49.004;12.120;2023-02-11T16:27:42;4.00;99.90
60727;DHT22;46577;49.004;12.120;2023-02-11T16:30:28;3.90;99.90
60727;DHT22;46577;49.004;12.120;2023-02-11T16:32:56;3.90;99.90
60727;DHT22;46577;49.004;12.120;2023-02-11T16:35:21;4.10;99.90
60727;DHT22;46577;49.004;12.120;2023-02-11T16:37:47;3.90;99.90
60727;DHT22;46577;49.004;12.120;2023-02-11T16:40:13;3.80;99.90
60727;DHT22;46577;49.004;12.120;2023-02-11T16:42:39;3.90;99.90
60727;DHT22;46577;49.004;12.120;2023-02-11T16:45:04;3.90;99.90
60727;DHT22;46577;49.004;12.120;2023-02-11T16:47:31;4.00;99.90
60727;DHT22;46577;49.004;12.120;2023-02-11T16:49:59;4.00;99.90
60727;DHT22;46577;49.004;12.120;2023-02-11T16:52:25;3.80;99.90
60727;DHT22;46577;49.004;12.120;2023-02-11T16:54:51;3.80;99.90
60727;DHT22;46577;49.004;12.120;2023-02-11T16:57:20;3.80;99.90
60727;DHT22;46577;49.004;12.120;2023-02-11T16:59:46;4.10;99.90
60727;DHT22;46577;49.004;12.120;2023-02-11T17:02:15;4.00;99.90
60727;DHT22;46577;49.004;12.120;2023-02-11T17:04:42;4.00;99.90
60727;DHT22;46577;49.004;12.120;2023-02-11T17:07:08;4.00;99.90
60727;DHT22;46577;49.004;12.120;2023-02-11T17:09:34;3.90;99.90
60727;DHT22;46577;49.004;12.120;2023-02-11T17:11:59;4.00;99.90
60727;DHT22;46577;49.004;12.120;2023-02-11T17:14:25;3.90;99.90
60727;DHT22;46577;49.004;12.120;2023-02-11T17:16:51;4.10;99.90
60727;DHT22;46577;49.004;12.120;2023-02-11T17:19:18;3.90;99.90
60727;DHT22;46577;49.004;12.120;2023-02-11T17:21:47;4.00;99.90
60727;DHT22;46577;49.004;12.120;2023-02-11T17:24:13;4.00;99.90
60727;DHT22;46577;49.004;12.120;2023-02-11T17:26:40;4.00;99.90
60727;DHT22;46577;49.004;12.120;2023-02-11T17:29:11;4.10;99.90
60727;DHT22;46577;49.004;12.120;2023-02-11T17:31:38;4.20;99.90
60727;DHT22;46577;49.004;12.120;2023-02-11T17:34:04;4.10;99.90
60727;DHT22;46577;49.004;12.120;2023-02-11T17:36:29;4.40;99.90
60727;DHT22;46577;49.004;12.120;2023-02-11T17:39:00;4.10;99.90
60727;DHT22;46577;49.004;12.120;2023-02-11T17:41:27;4.10;99.90
60727;DHT22;46577;49.004;12.120;2023-02-11T17:43:52;4.10;99.90
60727;DHT22;46577;49.004;12.120;2023-02-11T17:46:19;4.10;99.90
60727;DHT22;46577;49.004;12.120;2023-02-11T17:48:44;4.20;99.90
60727;DHT22;46577;49.004;12.120;2023-02-11T17:51:26;4.00;99.90
60727;DHT22;46577;49.004;12.120;2023-02-11T17:53:52;4.00;99.90
60727;DHT22;46577;49.004;12.120;2023-02-11T17:56:19;3.90;99.90
60727;DHT22;46577;49.004;12.120;2023-02-11T17:58:45;4.10;99.90
60727;DHT22;46577;49.004;12.120;2023-02-11T18:01:11;4.20;99.90
60727;DHT22;46577;49.004;12.120;2023-02-11T18:03:36;4.10;99.90
60727;DHT22;46577;49.004;12.120;2023-02-11T18:06:04;4.10;99.90